Time;durP1;ratioP1;P1;durP2;ratioP2;P2;SDS_P1;SDS_P2;PMS_P1;PMS_P2;Temp;Humidity;BMP_temperature;BMP_pressure;BME280_temperature;BME280_humidity;BME280_pressure;Samples;Min_cycle;Max_cycle;Signal;HPM_P1;HPM_P2
2021/08/18 00:02:04;;;;;;;0.20;0.20;;;22.70;63.50;;;;;;5085021;28;20047;-36
2021/08/18 00:04:30;;;;;;;0.10;0.10;;;22.70;63.90;;;;;;5080524;28;20486;-36
2021/08/18 00:06:56;;;;;;;0.10;0.10;;;22.70;64.50;;;;;;5065116;28;20052;-36
2021/08/18 00:09:23;;;;;;;0.15;0.15;;;22.70;64.20;;;;;;5065334;28;20072;-36
2021/08/18 00:11:49;;;;;;;0.10;0.10;;;22.70;64.20;;;;;;5074213;28;20497;-36
2021/08/18 00:14:15;;;;;;;0.20;0.10;;;22.70;63.70;;;;;;5083351;28;20055;-36
2021/08/18 00:16:42;;;;;;;0.20;0.20;;;22.70;63.30;;;;;;5065470;28;20075;-35
2021/08/18 00:19:08;;;;;;;0.40;0.10;;;22.70;62.60;;;;;;5084982;28;20795;-36
2021/08/18 00:21:34;;;;;;;0.20;0.10;;;22.70;63.70;;;;;;5084909;28;20104;-36
2021/08/18 00:24:00;;;;;;;0.10;0.10;;;22.70;63.70;;;;;;5084870;28;20024;-36
2021/08/18 00:26:26;;;;;;;0.20;0.20;;;22.70;64.40;;;;;;5084881;28;20024;-36
2021/08/18 00:28:55;;;;;;;0.10;0.10;;;22.70;65.40;;;;;;5084937;28;20036;-36
2021/08/18 00:31:22;;;;;;;0.10;0.10;;;22.70;64.90;;;;;;5084613;28;20096;-36
2021/08/18 00:33:48;;;;;;;0.25;0.10;;;22.70;65.00;;;;;;5084611;28;20028;-36
2021/08/18 00:36:15;;;;;;;0.10;0.10;;;22.70;64.80;;;;;;5084724;28;20028;-36
2021/08/18 00:38:41;;;;;;;0.10;0.10;;;22.70;64.10;;;;;;5084779;28;20063;-36
2021/08/18 00:41:07;;;;;;;0.10;0.10;;;22.70;63.20;;;;;;5084486;28;20259;-36
2021/08/18 00:43:33;;;;;;;0.10;0.10;;;22.70;63.20;;;;;;5084450;28;20025;-36
2021/08/18 00:46:00;;;;;;;0.10;0.10;;;22.70;63.50;;;;;;5084332;28;20039;-36
2021/08/18 00:48:26;;;;;;;0.20;0.10;;;22.70;64.20;;;;;;5084269;28;20143;-36
2021/08/18 00:50:52;;;;;;;0.10;0.10;;;22.70;65.20;;;;;;5084401;28;20032;-36
2021/08/18 00:53:18;;;;;;;0.10;0.10;;;22.70;65.10;;;;;;5083817;28;20029;-36
2021/08/18 00:55:44;;;;;;;0.10;0.10;;;22.70;65.00;;;;;;5084367;28;20588;-36
2021/08/18 00:58:10;;;;;;;0.22;0.22;;;22.70;64.80;;;;;;5084536;28;20063;-36
2021/08/18 01:00:37;;;;;;;0.82;0.10;;;22.70;65.20;;;;;;5064412;28;20033;-36
2021/08/18 01:03:03;;;;;;;0.10;0.10;;;22.70;65.20;;;;;;5063255;28;20417;-36
2021/08/18 01:05:30;;;;;;;0.20;0.20;;;22.70;65.70;;;;;;5063948;28;20029;-37
2021/08/18 01:07:57;;;;;;;0.20;0.13;;;22.70;65.60;;;;;;5063854;28;20034;-36
2021/08/18 01:10:25;;;;;;;0.10;0.10;;;22.70;65.60;;;;;;5063901;28;20099;-36
2021/08/18 01:12:52;;;;;;;0.25;0.20;;;22.70;65.30;;;;;;5081381;28;20035;-36
2021/08/18 01:15:19;;;;;;;0.10;0.10;;;22.70;65.20;;;;;;5078623;28;20032;-35
2021/08/18 01:17:49;;;;;;;0.25;0.20;;;22.70;65.10;;;;;;5063746;28;20089;-35
2021/08/18 01:20:21;;;;;;;0.28;0.10;;;22.70;65.20;;;;;;5063744;28;20029;-36
2021/08/18 01:22:47;;;;;;;0.10;0.10;;;22.80;65.30;;;;;;5063348;28;20135;-37
2021/08/18 01:25:14;;;;;;;0.10;0.10;;;22.70;65.50;;;;;;5063680;28;20033;-37
2021/08/18 01:27:48;;;;;;;0.13;0.13;;;22.70;65.60;;;;;;5063387;28;20033;-37
2021/08/18 01:30:15;;;;;;;0.10;0.10;;;22.70;64.90;;;;;;5079643;28;20123;-37
2021/08/18 01:33:11;;;;;;;0.10;0.10;;;22.80;64.10;;;;;;5083386;28;20075;-36
2021/08/18 01:35:43;;;;;;;0.10;0.10;;;22.70;63.50;;;;;;5083312;28;20036;-36
2021/08/18 01:38:10;;;;;;;0.10;0.10;;;22.70;63.70;;;;;;5083098;28;20023;-37
2021/08/18 01:40:37;;;;;;;0.22;0.13;;;22.70;64.40;;;;;;5065413;28;20028;-36
2021/08/18 01:43:03;;;;;;;0.20;0.20;;;22.70;65.40;;;;;;5063541;28;20044;-36
2021/08/18 01:45:32;;;;;;;0.10;0.10;;;22.80;66.10;;;;;;5062910;28;20029;-36
2021/08/18 01:48:03;;;;;;;0.10;0.10;;;22.80;66.50;;;;;;5062916;28;20087;-36
2021/08/18 01:50:29;;;;;;;0.20;0.20;;;22.70;66.70;;;;;;5044857;28;20043;-36
2021/08/18 01:52:58;;;;;;;0.15;0.15;;;22.70;67.00;;;;;;5062764;28;20072;-36
2021/08/18 01:55:24;;;;;;;0.10;0.10;;;22.70;67.30;;;;;;5062930;28;20071;-36
2021/08/18 01:57:54;;;;;;;0.10;0.10;;;22.70;67.40;;;;;;5062917;28;20063;-36
2021/08/18 02:00:20;;;;;;;0.10;0.10;;;22.70;67.70;;;;;;5080005;28;20025;-37
2021/08/18 02:02:47;;;;;;;0.13;0.13;;;22.70;67.60;;;;;;5082626;28;20032;-37
2021/08/18 02:05:13;;;;;;;0.10;0.10;;;22.80;67.60;;;;;;5082637;28;20035;-37
2021/08/18 02:07:39;;;;;;;0.10;0.10;;;22.80;67.20;;;;;;5074885;28;20102;-36
2021/08/18 02:10:08;;;;;;;0.10;0.10;;;22.70;67.10;;;;;;5062725;28;20033;-37
2021/08/18 02:12:35;;;;;;;0.30;0.10;;;22.70;67.10;;;;;;5078275;28;20048;-37
2021/08/18 02:15:02;;;;;;;;;;;22.70;67.20;;;;;;5082770;28;20032;-36
2021/08/18 02:17:28;;;;;;;0.10;0.10;;;22.70;67.30;;;;;;5074724;28;19919;-37
2021/08/18 02:19:54;;;;;;;0.10;0.10;;;22.70;67.20;;;;;;5062507;28;20648;-36
2021/08/18 02:22:20;;;;;;;0.15;0.15;;;22.70;67.20;;;;;;5062625;28;20032;-36
2021/08/18 02:24:46;;;;;;;0.10;0.10;;;22.70;67.30;;;;;;5062235;28;20055;-36
2021/08/18 02:27:12;;;;;;;0.17;0.13;;;22.80;67.70;;;;;;5062709;28;20033;-37
2021/08/18 02:29:39;;;;;;;0.20;0.20;;;22.70;68.00;;;;;;5073685;28;20047;-36
2021/08/18 02:32:05;;;;;;;0.63;0.35;;;22.70;68.90;;;;;;5082626;28;20025;-36
2021/08/18 02:34:31;;;;;;;0.52;0.10;;;22.70;68.40;;;;;;5082289;28;20029;-36
2021/08/18 02:36:57;;;;;;;0.10;0.10;;;22.70;68.60;;;;;;5082402;28;20029;-36
2021/08/18 02:39:24;;;;;;;0.20;0.20;;;22.80;68.70;;;;;;5082480;28;20021;-36
2021/08/18 02:41:50;;;;;;;0.10;0.10;;;22.80;68.70;;;;;;5073129;28;20144;-37
2021/08/18 02:44:16;;;;;;;0.38;0.10;;;22.80;68.70;;;;;;5061962;28;20040;-36
2021/08/18 02:46:42;;;;;;;0.20;0.20;;;22.80;68.70;;;;;;5062138;28;20025;-36
2021/08/18 02:49:09;;;;;;;0.60;0.20;;;22.80;68.70;;;;;;5062050;28;20041;-38
2021/08/18 02:51:35;;;;;;;0.25;0.20;;;22.80;68.50;;;;;;5062265;28;20029;-37
2021/08/18 02:54:01;;;;;;;0.20;0.20;;;22.80;68.50;;;;;;5061990;28;20029;-36
2021/08/18 02:56:27;;;;;;;1.30;0.10;;;22.80;68.40;;;;;;5062079;28;20036;-36
2021/08/18 02:58:53;;;;;;;0.20;0.20;;;22.80;69.10;;;;;;5067284;28;20028;-36
2021/08/18 03:01:19;;;;;;;0.10;0.10;;;22.80;68.20;;;;;;5082249;28;20027;-39
2021/08/18 03:03:45;;;;;;;0.57;0.10;;;22.80;68.10;;;;;;5081245;28;20113;-37
2021/08/18 03:06:12;;;;;;;0.20;0.17;;;22.80;68.10;;;;;;5081909;28;20029;-37
2021/08/18 03:08:38;;;;;;;0.20;0.20;;;22.80;68.10;;;;;;5082122;28;20041;-36
2021/08/18 03:11:04;;;;;;;0.20;0.20;;;22.80;68.10;;;;;;5082107;28;20568;-37
2021/08/18 03:13:30;;;;;;;0.10;0.10;;;22.80;68.20;;;;;;5081175;28;20040;-37
2021/08/18 03:15:56;;;;;;;1.42;0.10;;;22.80;68.10;;;;;;5081790;28;20062;-36
2021/08/18 03:18:22;;;;;;;0.10;0.10;;;22.80;68.10;;;;;;5082105;28;20033;-37
2021/08/18 03:20:48;;;;;;;0.10;0.10;;;22.80;68.10;;;;;;5081103;28;20032;-36
2021/08/18 03:23:14;;;;;;;0.30;0.20;;;22.80;68.00;;;;;;5063848;28;20044;-36
2021/08/18 03:25:41;;;;;;;0.10;0.10;;;22.80;68.10;;;;;;5061645;28;20031;-37
2021/08/18 03:28:07;;;;;;;0.20;0.20;;;22.90;68.10;;;;;;5064944;28;20032;-37
2021/08/18 03:30:33;;;;;;;0.20;0.20;;;22.90;68.10;;;;;;5084585;28;20034;-37
2021/08/18 03:32:59;;;;;;;0.30;0.20;;;22.80;68.00;;;;;;5085384;28;20055;-36
2021/08/18 03:35:26;;;;;;;0.17;0.17;;;22.80;68.00;;;;;;5084867;28;20055;-36
2021/08/18 03:37:52;;;;;;;0.20;0.20;;;22.80;67.90;;;;;;5085689;28;20134;-36
2021/08/18 03:40:18;;;;;;;0.20;0.20;;;22.80;67.90;;;;;;5085494;28;20386;-36
2021/08/18 03:42:44;;;;;;;0.10;0.10;;;22.80;67.90;;;;;;5085336;28;20029;-36
2021/08/18 03:45:11;;;;;;;0.10;0.10;;;22.80;67.90;;;;;;5085362;28;20033;-36
2021/08/18 03:47:38;;;;;;;0.20;0.20;;;22.80;68.60;;;;;;5085158;28;20059;-37
2021/08/18 03:50:08;;;;;;;0.20;0.10;;;22.80;67.90;;;;;;5085105;28;20040;-36
2021/08/18 03:52:40;;;;;;;0.63;0.20;;;22.80;67.90;;;;;;5085154;28;20031;-36
2021/08/18 03:55:07;;;;;;;0.50;0.20;;;22.80;68.60;;;;;;5066714;28;20024;-37
2021/08/18 03:57:34;;;;;;;0.20;0.20;;;22.80;67.90;;;;;;5085355;28;20023;-37
2021/08/18 04:00:00;;;;;;;0.30;0.10;;;22.90;67.80;;;;;;5085121;28;20032;-36
2021/08/18 04:02:26;;;;;;;0.68;0.15;;;22.90;67.90;;;;;;5085070;28;20096;-37
2021/08/18 04:04:52;;;;;;;0.57;0.20;;;22.90;67.80;;;;;;5084464;28;20033;-36
2021/08/18 04:07:19;;;;;;;0.10;0.10;;;22.80;67.80;;;;;;5084911;28;20021;-36
2021/08/18 04:09:45;;;;;;;0.10;0.10;;;22.80;67.80;;;;;;5084880;28;20037;-35
2021/08/18 04:12:11;;;;;;;0.10;0.10;;;22.80;67.90;;;;;;5084876;28;20097;-37
2021/08/18 04:14:37;;;;;;;0.50;0.10;;;22.80;67.90;;;;;;5084809;28;20079;-36
2021/08/18 04:17:03;;;;;;;0.43;0.20;;;22.80;67.90;;;;;;5081401;28;20043;-37
2021/08/18 04:19:29;;;;;;;0.30;0.20;;;22.80;67.90;;;;;;5084563;28;20025;-37
2021/08/18 04:21:56;;;;;;;0.28;0.13;;;22.80;67.90;;;;;;5084816;28;20025;-38
2021/08/18 04:24:22;;;;;;;0.65;0.20;;;22.80;67.90;;;;;;5084746;28;20097;-37
2021/08/18 04:26:48;;;;;;;0.10;0.10;;;22.80;67.90;;;;;;5074584;28;20029;-37
2021/08/18 04:29:14;;;;;;;0.35;0.28;;;22.80;67.90;;;;;;5072601;28;20518;-36
2021/08/18 04:31:40;;;;;;;0.65;0.20;;;22.80;67.80;;;;;;5084416;28;20051;-36
2021/08/18 04:34:06;;;;;;;0.32;0.20;;;22.80;67.90;;;;;;5084161;28;20024;-37
2021/08/18 04:36:32;;;;;;;1.02;0.20;;;22.80;68.00;;;;;;5084396;28;20025;-36
2021/08/18 04:38:59;;;;;;;0.28;0.20;;;22.80;68.00;;;;;;5083228;28;20029;-36
2021/08/18 04:41:25;;;;;;;0.20;0.20;;;22.80;67.90;;;;;;5084410;28;20027;-36
2021/08/18 04:43:51;;;;;;;0.10;0.10;;;22.80;68.80;;;;;;5084301;28;20027;-37
2021/08/18 04:46:17;;;;;;;0.20;0.20;;;22.80;68.10;;;;;;5083885;28;20032;-37
2021/08/18 04:48:43;;;;;;;1.63;0.30;;;22.80;68.10;;;;;;5084192;28;20044;-36
2021/08/18 04:51:09;;;;;;;0.20;0.10;;;22.80;68.10;;;;;;5083878;28;20036;-36
2021/08/18 04:53:35;;;;;;;0.30;0.30;;;22.80;68.20;;;;;;5084140;28;20035;-36
2021/08/18 04:56:02;;;;;;;1.20;0.30;;;22.80;68.30;;;;;;5083853;28;20036;-37
2021/08/18 04:58:29;;;;;;;1.05;0.20;;;22.80;68.30;;;;;;5084175;28;20044;-37
2021/08/18 05:00:55;;;;;;;0.10;0.10;;;22.80;68.30;;;;;;5083873;28;20501;-36
2021/08/18 05:03:21;;;;;;;0.17;0.17;;;22.80;68.30;;;;;;5083911;28;20032;-36
2021/08/18 05:05:47;;;;;;;0.20;0.20;;;22.80;68.30;;;;;;5083669;28;20389;-36
2021/08/18 05:08:14;;;;;;;0.77;0.20;;;22.80;68.30;;;;;;5083920;28;20036;-36
2021/08/18 05:10:40;;;;;;;0.22;0.22;;;22.80;68.30;;;;;;5083830;28;20036;-37
2021/08/18 05:13:06;;;;;;;0.80;0.30;;;22.80;68.30;;;;;;5083738;28;20037;-37
2021/08/18 05:15:32;;;;;;;0.70;0.10;;;22.80;68.40;;;;;;5081607;28;20564;-36
2021/08/18 05:17:58;;;;;;;0.22;0.20;;;22.80;68.40;;;;;;5083637;28;20051;-36
2021/08/18 05:20:25;;;;;;;0.30;0.30;;;22.70;68.30;;;;;;5083443;28;20028;-36
2021/08/18 05:22:51;;;;;;;1.08;0.30;;;22.70;68.40;;;;;;5083500;28;20035;-37
2021/08/18 05:25:17;;;;;;;0.40;0.20;;;22.70;68.30;;;;;;5083420;28;20726;-36
2021/08/18 05:27:43;;;;;;;0.20;0.13;;;22.70;68.20;;;;;;5083285;28;20480;-36
2021/08/18 05:30:11;;;;;;;0.40;0.20;;;22.70;68.50;;;;;;5083173;28;20293;-36
2021/08/18 05:32:38;;;;;;;2.05;0.40;;;22.70;68.40;;;;;;5083166;28;20028;-37
2021/08/18 05:35:07;;;;;;;0.45;0.20;;;22.70;68.40;;;;;;5083054;28;20048;-36
2021/08/18 05:37:33;;;;;;;0.57;0.30;;;22.70;68.40;;;;;;5083087;28;20028;-37
2021/08/18 05:40:00;;;;;;;1.55;0.30;;;22.70;68.60;;;;;;5083146;28;20021;-36
2021/08/18 05:42:27;;;;;;;0.20;0.20;;;22.70;68.50;;;;;;5083094;28;20091;-35
2021/08/18 05:44:53;;;;;;;0.30;0.30;;;22.70;68.50;;;;;;5083047;28;20037;-37
2021/08/18 05:47:21;;;;;;;0.40;0.20;;;22.70;68.50;;;;;;5082533;28;20040;-36
2021/08/18 05:49:49;;;;;;;0.38;0.20;;;22.70;68.50;;;;;;5082538;28;20040;-36
2021/08/18 05:52:15;;;;;;;0.35;0.20;;;22.70;68.40;;;;;;5082979;28;20039;-37
2021/08/18 05:54:41;;;;;;;0.57;0.30;;;22.70;68.60;;;;;;5082968;28;20206;-36
2021/08/18 05:57:07;;;;;;;0.50;0.30;;;22.70;68.50;;;;;;5082757;28;20725;-36
2021/08/18 05:59:33;;;;;;;0.30;0.30;;;22.80;68.50;;;;;;5082731;28;20032;-36
2021/08/18 06:02:00;;;;;;;0.20;0.20;;;22.70;68.60;;;;;;5067559;28;20055;-36
2021/08/18 06:04:26;;;;;;;0.45;0.30;;;22.70;68.60;;;;;;5071562;28;20040;-36
2021/08/18 06:06:54;;;;;;;0.20;0.13;;;22.70;68.60;;;;;;5082600;28;20852;-36
2021/08/18 06:09:20;;;;;;;0.20;0.20;;;22.70;68.60;;;;;;5082771;28;20109;-36
2021/08/18 06:11:46;;;;;;;0.20;0.20;;;22.70;68.50;;;;;;5082902;28;20030;-36
2021/08/18 06:14:12;;;;;;;1.58;0.20;;;22.70;68.60;;;;;;5082608;28;20488;-36
2021/08/18 06:16:39;;;;;;;0.40;0.30;;;22.70;68.70;;;;;;5082500;28;20055;-37
2021/08/18 06:19:05;;;;;;;0.77;0.30;;;22.70;68.80;;;;;;5082782;28;20447;-36
2021/08/18 06:21:31;;;;;;;0.82;0.20;;;22.70;68.70;;;;;;5066423;28;20017;-37
2021/08/18 06:24:05;;;;;;;0.10;0.10;;;22.70;68.80;;;;;;5062309;28;20078;-36
2021/08/18 06:26:32;;;;;;;1.48;0.25;;;22.70;68.80;;;;;;5062196;28;20040;-37
2021/08/18 06:28:58;;;;;;;0.10;0.10;;;22.70;68.80;;;;;;5068266;28;20047;-36
2021/08/18 06:31:24;;;;;;;3.38;0.30;;;22.70;68.80;;;;;;5079247;28;20092;-37
2021/08/18 06:33:50;;;;;;;0.40;0.20;;;22.60;68.70;;;;;;5078393;28;20025;-37
2021/08/18 06:36:16;;;;;;;1.77;0.40;;;22.70;68.90;;;;;;5062196;28;20029;-36
2021/08/18 06:38:43;;;;;;;0.65;0.20;;;22.60;68.80;;;;;;5062306;28;20112;-37
2021/08/18 06:41:09;;;;;;;0.20;0.20;;;22.60;68.70;;;;;;5062294;28;20056;-36
2021/08/18 06:43:35;;;;;;;0.73;0.30;;;22.70;68.80;;;;;;5062090;28;20569;-37
2021/08/18 06:46:01;;;;;;;1.45;0.30;;;22.60;68.80;;;;;;5062316;28;20025;-37
2021/08/18 06:48:27;;;;;;;0.20;0.20;;;22.70;68.90;;;;;;5062165;28;20045;-36
2021/08/18 06:50:53;;;;;;;0.40;0.28;;;22.60;68.80;;;;;;5062096;28;20082;-37
2021/08/18 06:53:19;;;;;;;0.50;0.38;;;22.70;69.00;;;;;;5062180;28;20025;-36
2021/08/18 06:55:45;;;;;;;0.35;0.32;;;22.60;68.90;;;;;;5062315;28;20029;-37
2021/08/18 06:58:12;;;;;;;0.50;0.20;;;22.60;69.00;;;;;;5062147;28;20025;-37
2021/08/18 07:00:38;;;;;;;0.50;0.30;;;22.60;69.00;;;;;;5081856;28;20101;-36
2021/08/18 07:03:04;;;;;;;0.57;0.30;;;22.60;69.10;;;;;;5085205;28;20078;-36
2021/08/18 07:05:34;;;;;;;0.43;0.30;;;22.70;69.10;;;;;;5085926;28;20116;-36
2021/08/18 07:08:00;;;;;;;1.38;0.30;;;22.60;69.00;;;;;;5086018;28;20033;-36
2021/08/18 07:10:26;;;;;;;0.45;0.40;;;22.60;69.00;;;;;;5086172;28;20059;-37
2021/08/18 07:12:52;;;;;;;1.70;0.28;;;22.60;69.10;;;;;;5086013;28;20024;-37
2021/08/18 07:15:19;;;;;;;0.40;0.35;;;22.60;69.00;;;;;;5086108;28;20028;-37
2021/08/18 07:17:46;;;;;;;0.47;0.30;;;22.60;69.00;;;;;;5086101;28;20021;-36
2021/08/18 07:20:13;;;;;;;1.75;0.30;;;22.60;69.00;;;;;;5080335;28;20029;-37
2021/08/18 07:22:39;;;;;;;0.30;0.20;;;22.60;69.00;;;;;;5065719;28;20060;-36
2021/08/18 07:25:05;;;;;;;0.30;0.30;;;22.60;69.00;;;;;;5065679;28;20036;-37
2021/08/18 07:27:32;;;;;;;0.75;0.30;;;22.60;69.10;;;;;;5065498;28;20569;-36
2021/08/18 07:29:58;;;;;;;0.68;0.32;;;22.60;69.10;;;;;;5061688;28;20122;-36
2021/08/18 07:32:24;;;;;;;0.82;0.50;;;22.60;69.90;;;;;;5085406;28;20088;-36
2021/08/18 07:34:50;;;;;;;1.02;0.40;;;22.60;69.20;;;;;;5085432;28;20587;-37
2021/08/18 07:37:17;;;;;;;0.75;0.38;;;22.60;69.20;;;;;;5085813;28;20024;-36
2021/08/18 07:39:44;;;;;;;1.77;0.30;;;22.60;69.20;;;;;;5085566;28;20048;-36
2021/08/18 07:42:11;;;;;;;1.52;0.40;;;22.60;69.30;;;;;;5085485;28;20029;-36
2021/08/18 07:44:38;;;;;;;0.20;0.20;;;22.50;69.20;;;;;;5085308;28;20040;-37
2021/08/18 07:47:04;;;;;;;0.40;0.30;;;22.50;69.20;;;;;;5085501;28;20021;-37
2021/08/18 07:49:30;;;;;;;0.85;0.20;;;22.60;69.30;;;;;;5085556;28;20062;-36
2021/08/18 07:51:56;;;;;;;0.50;0.20;;;22.50;69.30;;;;;;5085333;28;20051;-36
2021/08/18 07:54:23;;;;;;;0.30;0.20;;;22.50;69.20;;;;;;5084861;28;20081;-37
2021/08/18 07:56:49;;;;;;;0.95;0.35;;;22.50;69.20;;;;;;5085330;28;20036;-36
2021/08/18 07:59:15;;;;;;;0.60;0.22;;;22.60;69.30;;;;;;5085217;28;20021;-37
2021/08/18 08:01:42;;;;;;;3.13;1.10;;;22.50;69.20;;;;;;5085343;28;20032;-37
2021/08/18 08:04:08;;;;;;;0.60;0.20;;;22.50;69.30;;;;;;5084939;28;20131;-36
2021/08/18 08:06:34;;;;;;;0.77;0.40;;;22.50;69.20;;;;;;5084986;28;20040;-36
2021/08/18 08:09:00;;;;;;;0.55;0.35;;;22.50;69.30;;;;;;5084851;28;20078;-37
2021/08/18 08:11:26;;;;;;;0.70;0.47;;;22.50;69.30;;;;;;5084148;28;20080;-36
2021/08/18 08:13:52;;;;;;;0.38;0.30;;;22.50;69.20;;;;;;5082171;28;20024;-37
2021/08/18 08:16:19;;;;;;;0.50;0.40;;;22.50;69.30;;;;;;5084990;28;20035;-37
2021/08/18 08:18:45;;;;;;;0.95;0.30;;;22.50;69.30;;;;;;5084909;28;20496;-36
2021/08/18 08:21:11;;;;;;;0.65;0.30;;;22.50;69.30;;;;;;5084704;28;20039;-37
2021/08/18 08:23:37;;;;;;;0.98;0.40;;;22.50;69.40;;;;;;5084354;28;20107;-37
2021/08/18 08:26:03;;;;;;;2.60;0.45;;;22.50;69.40;;;;;;5084880;28;20028;-36
2021/08/18 08:28:29;;;;;;;1.10;0.47;;;22.50;69.40;;;;;;5062247;28;20020;-36
2021/08/18 08:30:55;;;;;;;0.68;0.40;;;22.50;69.40;;;;;;5084639;28;20040;-36
2021/08/18 08:33:22;;;;;;;0.40;0.30;;;22.50;70.10;;;;;;5084270;28;20024;-36
2021/08/18 08:35:48;;;;;;;1.60;0.32;;;22.50;69.50;;;;;;5084573;28;20031;-37
2021/08/18 08:38:15;;;;;;;0.65;0.20;;;22.50;69.50;;;;;;5084642;28;20040;-36
2021/08/18 08:40:43;;;;;;;0.63;0.25;;;22.50;69.50;;;;;;5084467;28;20063;-36
2021/08/18 08:43:10;;;;;;;0.93;0.30;;;22.50;69.50;;;;;;5084380;28;20025;-36
2021/08/18 08:45:38;;;;;;;0.85;0.30;;;22.50;69.50;;;;;;5049681;28;20036;-37
2021/08/18 08:48:06;;;;;;;0.45;0.30;;;22.50;69.50;;;;;;5084402;28;20071;-37
2021/08/18 08:50:32;;;;;;;0.90;0.30;;;22.50;69.50;;;;;;5066264;28;20110;-36
2021/08/18 08:52:58;;;;;;;0.40;0.35;;;22.50;69.50;;;;;;5084056;28;20406;-36
2021/08/18 08:55:24;;;;;;;2.72;0.45;;;22.50;69.50;;;;;;5065988;28;20111;-36
2021/08/18 08:57:52;;;;;;;2.25;0.40;;;22.40;69.50;;;;;;5084355;28;20031;-36
2021/08/18 09:00:19;;;;;;;1.67;0.32;;;22.50;69.60;;;;;;5067371;28;20028;-37
2021/08/18 09:02:45;;;;;;;1.13;0.40;;;22.40;69.50;;;;;;5064041;28;20036;-36
2021/08/18 09:05:11;;;;;;;1.17;0.30;;;22.40;69.60;;;;;;5063465;28;20398;-37
2021/08/18 09:07:37;;;;;;;1.30;0.40;;;22.50;69.60;;;;;;5063948;28;20036;-36
2021/08/18 09:10:05;;;;;;;0.55;0.35;;;22.40;69.60;;;;;;5063791;28;20075;-36
2021/08/18 09:12:37;;;;;;;1.67;0.40;;;22.40;69.60;;;;;;5063923;28;20044;-37
2021/08/18 09:15:17;;;;;;;2.33;0.40;;;22.40;69.60;;;;;;5063684;28;20425;-37
2021/08/18 09:17:43;;;;;;;0.50;0.40;;;22.40;69.60;;;;;;5063749;28;20041;-36
2021/08/18 09:20:23;;;;;;;1.60;0.32;;;22.40;69.60;;;;;;5063416;28;20067;-37
2021/08/18 09:22:54;;;;;;;1.38;0.40;;;22.40;69.60;;;;;;5063539;28;20033;-36
2021/08/18 09:25:26;;;;;;;1.15;0.40;;;22.40;69.60;;;;;;5062585;28;20037;-36
2021/08/18 09:28:13;;;;;;;0.57;0.40;;;22.40;69.60;;;;;;5063531;28;20116;-37
2021/08/18 09:30:44;;;;;;;0.63;0.30;;;22.40;69.70;;;;;;5083034;28;20043;-37
2021/08/18 09:33:17;;;;;;;0.60;0.40;;;22.40;69.60;;;;;;5083582;28;20027;-36
2021/08/18 09:35:45;;;;;;;0.45;0.30;;;22.40;69.60;;;;;;5082971;28;20028;-37
2021/08/18 09:38:15;;;;;;;0.38;0.30;;;22.40;69.70;;;;;;5065263;28;20044;-37
2021/08/18 09:40:49;;;;;;;0.60;0.40;;;22.40;69.70;;;;;;5083377;28;20093;-37
2021/08/18 09:43:21;;;;;;;1.40;0.40;;;22.40;69.70;;;;;;5083171;28;20040;-36
2021/08/18 09:45:49;;;;;;;2.05;0.40;;;22.40;69.80;;;;;;5083256;28;20063;-36
2021/08/18 09:48:19;;;;;;;0.50;0.40;;;22.40;69.80;;;;;;5061801;28;20108;-37
2021/08/18 09:50:50;;;;;;;0.60;0.38;;;22.40;69.80;;;;;;5062736;28;20041;-36
2021/08/18 09:53:24;;;;;;;0.43;0.40;;;22.40;69.90;;;;;;5063189;28;20040;-37
2021/08/18 09:55:54;;;;;;;0.75;0.40;;;22.40;69.80;;;;;;5063025;28;20085;-36
2021/08/18 09:58:22;;;;;;;1.20;0.40;;;22.40;69.90;;;;;;5063183;28;20098;-37
2021/08/18 10:00:48;;;;;;;0.45;0.43;;;22.30;69.80;;;;;;5063111;28;20037;-37
2021/08/18 10:03:15;;;;;;;1.77;0.43;;;22.30;69.90;;;;;;5061602;28;20025;-36
2021/08/18 10:05:41;;;;;;;0.90;0.40;;;22.40;69.90;;;;;;5062526;28;20089;-37
2021/08/18 10:08:08;;;;;;;0.83;0.57;;;22.40;70.60;;;;;;5062915;28;20047;-36
2021/08/18 10:10:35;;;;;;;;;;;22.30;69.90;;;;;;5063312;28;20297;-37
2021/08/18 10:13:01;;;;;;;0.50;0.40;;;22.30;70.00;;;;;;5062747;28;19952;-37
2021/08/18 10:15:27;;;;;;;0.45;0.22;;;22.30;69.90;;;;;;5044827;28;20033;-37
2021/08/18 10:17:53;;;;;;;1.17;0.43;;;22.30;69.90;;;;;;5062885;28;20032;-37
2021/08/18 10:20:22;;;;;;;0.50;0.38;;;22.30;70.00;;;;;;5055950;28;20364;-37
2021/08/18 10:22:59;;;;;;;0.80;0.35;;;22.30;70.00;;;;;;5041401;28;20093;-36
2021/08/18 10:25:44;;;;;;;0.43;0.30;;;22.30;70.00;;;;;;5042539;28;20040;-37
2021/08/18 10:28:10;;;;;;;1.90;0.40;;;22.30;70.00;;;;;;5042919;28;20033;-37
2021/08/18 10:30:47;;;;;;;0.70;0.38;;;22.30;70.00;;;;;;5061950;28;20048;-36
2021/08/18 10:33:50;;;;;;;0.80;0.45;;;22.30;70.10;;;;;;5059805;28;20029;-36
2021/08/18 10:36:41;;;;;;;0.90;0.50;;;22.30;70.10;;;;;;5042174;28;20029;-36
2021/08/18 10:39:22;;;;;;;1.52;0.40;;;22.30;70.10;;;;;;5042737;28;20089;-37
2021/08/18 10:42:09;;;;;;;1.17;0.50;;;22.30;70.20;;;;;;5042468;28;20040;-37
2021/08/18 10:44:52;;;;;;;0.30;0.30;;;22.30;70.20;;;;;;5042763;28;20247;-37
2021/08/18 10:47:22;;;;;;;1.15;0.50;;;22.30;70.20;;;;;;5044608;28;20036;-37
2021/08/18 10:49:52;;;;;;;0.43;0.30;;;22.30;70.20;;;;;;5062296;28;20048;-37
2021/08/18 10:52:41;;;;;;;0.98;0.30;;;22.30;70.20;;;;;;5062258;28;20017;-37
2021/08/18 10:55:18;;;;;;;1.30;0.60;;;22.30;70.30;;;;;;5061663;28;20041;-36
2021/08/18 10:57:51;;;;;;;1.65;0.50;;;22.30;70.20;;;;;;5062458;28;20028;-37
2021/08/18 11:00:18;;;;;;;1.83;0.50;;;22.30;70.30;;;;;;5079180;28;20074;-37
2021/08/18 11:02:54;;;;;;;1.15;0.65;;;22.30;70.20;;;;;;5082535;28;20040;-37
2021/08/18 11:05:42;;;;;;;0.73;0.40;;;22.30;70.30;;;;;;5047290;28;20092;-37
2021/08/18 11:08:12;;;;;;;3.23;0.40;;;22.30;70.30;;;;;;5062236;28;20101;-38
2021/08/18 11:10:53;;;;;;;2.28;0.63;;;22.30;70.30;;;;;;5062327;28;20041;-37
2021/08/18 11:13:38;;;;;;;1.33;0.40;;;22.30;70.30;;;;;;5062514;28;20108;-36
2021/08/18 11:16:12;;;;;;;0.50;0.40;;;22.30;70.30;;;;;;5062310;28;20031;-37
2021/08/18 11:18:45;;;;;;;0.52;0.30;;;22.30;70.30;;;;;;5062091;28;20032;-36
2021/08/18 11:21:15;;;;;;;1.33;0.43;;;22.30;70.40;;;;;;5028874;28;20106;-37
2021/08/18 11:23:42;;;;;;;1.13;0.40;;;22.30;70.40;;;;;;5061922;28;20045;-36
2021/08/18 11:26:08;;;;;;;0.43;0.30;;;22.30;70.50;;;;;;5030669;28;20088;-36
2021/08/18 11:28:36;;;;;;;1.17;0.43;;;22.30;70.40;;;;;;5064971;28;20124;-37
2021/08/18 11:31:04;;;;;;;1.08;0.40;;;22.30;70.30;;;;;;5082107;28;20037;-37
2021/08/18 11:33:30;;;;;;;0.50;0.32;;;22.20;70.30;;;;;;5082172;28;20032;-36
2021/08/18 11:35:56;;;;;;;3.50;0.50;;;22.20;70.40;;;;;;5081708;28;20031;-36
2021/08/18 11:38:23;;;;;;;0.70;0.40;;;22.20;70.30;;;;;;5082148;28;20058;-37
2021/08/18 11:40:52;;;;;;;0.50;0.30;;;22.20;70.50;;;;;;5082425;28;20033;-37
2021/08/18 11:43:38;;;;;;;1.23;0.40;;;22.20;70.40;;;;;;5082042;28;20024;-37
2021/08/18 11:46:05;;;;;;;1.55;0.30;;;22.20;70.40;;;;;;5081690;28;20031;-36
2021/08/18 11:48:31;;;;;;;0.40;0.40;;;22.20;70.40;;;;;;5083996;28;20060;-37
2021/08/18 11:50:57;;;;;;;0.88;0.30;;;22.20;70.40;;;;;;5085537;28;20041;-37
2021/08/18 11:53:24;;;;;;;0.50;0.38;;;22.20;70.40;;;;;;5034552;28;20040;-37
2021/08/18 11:56:04;;;;;;;2.13;0.40;;;22.20;70.50;;;;;;5085681;28;20035;-37
2021/08/18 11:58:32;;;;;;;0.70;0.40;;;22.20;70.40;;;;;;5085582;28;20028;-37
2021/08/18 12:01:06;;;;;;;0.57;0.35;;;22.20;70.50;;;;;;5085362;28;20041;-37
2021/08/18 12:03:32;;;;;;;0.95;0.30;;;22.20;70.40;;;;;;5051554;28;20016;-37
2021/08/18 12:06:03;;;;;;;1.52;0.30;;;22.20;70.50;;;;;;5085180;28;20060;-36
2021/08/18 12:08:42;;;;;;;1.25;0.45;;;22.20;70.50;;;;;;5085139;28;20107;-37
2021/08/18 12:11:09;;;;;;;0.75;0.40;;;22.20;70.40;;;;;;5085278;28;20040;-37
2021/08/18 12:13:39;;;;;;;0.70;0.32;;;22.20;70.50;;;;;;5085177;28;20033;-37
2021/08/18 12:16:31;;;;;;;2.08;0.40;;;22.20;70.40;;;;;;5067140;28;20058;-36
2021/08/18 12:19:20;;;;;;;2.38;0.50;;;22.20;70.40;;;;;;5067269;28;20028;-37
2021/08/18 12:22:07;;;;;;;0.40;0.40;;;22.20;70.50;;;;;;5084995;28;20052;-37
2021/08/18 12:24:34;;;;;;;1.30;0.40;;;22.20;70.40;;;;;;5081824;28;20032;-37
2021/08/18 12:27:05;;;;;;;0.30;0.30;;;22.20;70.40;;;;;;5085000;28;20032;-37
2021/08/18 12:29:32;;;;;;;0.63;0.40;;;22.20;70.40;;;;;;5084983;28;20066;-40
2021/08/18 12:32:02;;;;;;;0.70;0.50;;;22.20;70.40;;;;;;5085126;28;20029;-37
2021/08/18 12:34:32;;;;;;;0.85;0.30;;;22.20;70.40;;;;;;5084879;28;20393;-37
2021/08/18 12:36:59;;;;;;;0.60;0.32;;;22.20;70.40;;;;;;5081303;28;20035;-37
2021/08/18 12:39:45;;;;;;;0.52;0.50;;;22.20;70.40;;;;;;5084982;28;20034;-36
2021/08/18 12:42:26;;;;;;;1.38;0.40;;;22.20;70.50;;;;;;5084799;28;20024;-37
2021/08/18 12:45:00;;;;;;;0.80;0.35;;;22.20;70.40;;;;;;5084447;28;20032;-37
2021/08/18 12:47:46;;;;;;;0.40;0.40;;;22.20;70.40;;;;;;5084587;28;20051;-37
2021/08/18 12:50:14;;;;;;;0.50;0.32;;;22.20;70.50;;;;;;5070723;28;20100;-36
2021/08/18 12:52:40;;;;;;;1.75;0.40;;;22.20;70.40;;;;;;5084406;28;20028;-36
2021/08/18 12:55:07;;;;;;;0.43;0.43;;;22.20;70.50;;;;;;5084587;28;20037;-36